sensor_id;sensor_type;location;lat;lon;timestamp;P1;durP1;ratioP1;P2;durP2;ratioP2
75700;SDS011;64321;48.796;44.740;2023-08-17T00:03:40;5.60;;;2.05;;
75700;SDS011;64321;48.796;44.740;2023-08-17T00:08:43;5.80;;;2.42;;
75700;SDS011;64321;48.796;44.740;2023-08-17T00:13:45;6.07;;;2.30;;
75700;SDS011;64321;48.796;44.740;2023-08-17T00:18:47;4.70;;;2.47;;
75700;SDS011;64321;48.796;44.740;2023-08-17T00:23:50;5.90;;;2.40;;
75700;SDS011;64321;48.796;44.740;2023-08-17T00:28:52;5.20;;;2.10;;
75700;SDS011;64321;48.796;44.740;2023-08-17T00:33:54;6.00;;;2.92;;
75700;SDS011;64321;48.796;44.740;2023-08-17T00:38:58;5.57;;;2.35;;
75700;SDS011;64321;48.796;44.740;2023-08-17T00:44:00;4.03;;;2.30;;
75700;SDS011;64321;48.796;44.740;2023-08-17T00:49:03;3.28;;;2.10;;
75700;SDS011;64321;48.796;44.740;2023-08-17T00:54:05;5.97;;;2.05;;
75700;SDS011;64321;48.796;44.740;2023-08-17T00:59:07;5.38;;;2.15;;
75700;SDS011;64321;48.796;44.740;2023-08-17T01:04:10;4.28;;;2.00;;
75700;SDS011;64321;48.796;44.740;2023-08-17T01:09:12;3.80;;;2.15;;
75700;SDS011;64321;48.796;44.740;2023-08-17T01:14:18;3.58;;;2.03;;
75700;SDS011;64321;48.796;44.740;2023-08-17T01:19:24;5.35;;;1.92;;
75700;SDS011;64321;48.796;44.740;2023-08-17T01:24:27;4.28;;;1.83;;
75700;SDS011;64321;48.796;44.740;2023-08-17T01:29:30;5.53;;;2.22;;
75700;SDS011;64321;48.796;44.740;2023-08-17T01:34:33;5.10;;;1.65;;
75700;SDS011;64321;48.796;44.740;2023-08-17T01:39:39;6.60;;;3.10;;
75700;SDS011;64321;48.796;44.740;2023-08-17T01:44:44;4.38;;;2.80;;
75700;SDS011;64321;48.796;44.740;2023-08-17T01:49:49;5.65;;;1.80;;
75700;SDS011;64321;48.796;44.740;2023-08-17T01:54:51;5.43;;;2.72;;
75700;SDS011;64321;48.796;44.740;2023-08-17T01:59:54;6.22;;;2.15;;
75700;SDS011;64321;48.796;44.740;2023-08-17T02:04:56;4.45;;;1.98;;
75700;SDS011;64321;48.796;44.740;2023-08-17T02:09:58;3.92;;;2.13;;
75700;SDS011;64321;48.796;44.740;2023-08-17T02:15:01;3.70;;;2.00;;
75700;SDS011;64321;48.796;44.740;2023-08-17T02:20:05;5.45;;;2.70;;
75700;SDS011;64321;48.796;44.740;2023-08-17T02:25:07;5.68;;;2.90;;
75700;SDS011;64321;48.796;44.740;2023-08-17T02:30:10;3.78;;;2.42;;
75700;SDS011;64321;48.796;44.740;2023-08-17T02:35:12;3.50;;;2.00;;
75700;SDS011;64321;48.796;44.740;2023-08-17T02:40:14;4.13;;;2.00;;
75700;SDS011;64321;48.796;44.740;2023-08-17T02:45:16;8.48;;;2.60;;
75700;SDS011;64321;48.796;44.740;2023-08-17T02:50:19;6.25;;;2.53;;
75700;SDS011;64321;48.796;44.740;2023-08-17T02:55:21;3.92;;;2.00;;
75700;SDS011;64321;48.796;44.740;2023-08-17T03:00:23;4.13;;;2.25;;
75700;SDS011;64321;48.796;44.740;2023-08-17T03:05:25;3.88;;;2.13;;
75700;SDS011;64321;48.796;44.740;2023-08-17T03:10:29;4.80;;;2.42;;
75700;SDS011;64321;48.796;44.740;2023-08-17T03:15:31;4.32;;;2.33;;
75700;SDS011;64321;48.796;44.740;2023-08-17T03:20:33;5.18;;;1.88;;
75700;SDS011;64321;48.796;44.740;2023-08-17T03:25:35;5.22;;;2.35;;
75700;SDS011;64321;48.796;44.740;2023-08-17T03:30:38;6.63;;;2.45;;
75700;SDS011;64321;48.796;44.740;2023-08-17T03:35:40;5.78;;;2.58;;
75700;SDS011;64321;48.796;44.740;2023-08-17T03:40:43;4.55;;;2.42;;
75700;SDS011;64321;48.796;44.740;2023-08-17T03:45:45;4.35;;;2.28;;
75700;SDS011;64321;48.796;44.740;2023-08-17T03:50:50;4.38;;;3.30;;
75700;SDS011;64321;48.796;44.740;2023-08-17T03:55:52;4.53;;;2.28;;
75700;SDS011;64321;48.796;44.740;2023-08-17T04:00:54;6.45;;;2.70;;
75700;SDS011;64321;48.796;44.740;2023-08-17T04:06:05;8.18;;;1.80;;
75700;SDS011;64321;48.796;44.740;2023-08-17T04:11:08;4.28;;;2.33;;
75700;SDS011;64321;48.796;44.740;2023-08-17T04:16:10;7.10;;;2.17;;
75700;SDS011;64321;48.796;44.740;2023-08-17T04:21:12;6.00;;;2.13;;
75700;SDS011;64321;48.796;44.740;2023-08-17T04:26:16;8.57;;;2.53;;
75700;SDS011;64321;48.796;44.740;2023-08-17T04:31:18;5.50;;;2.55;;
75700;SDS011;64321;48.796;44.740;2023-08-17T04:36:28;5.72;;;2.50;;
75700;SDS011;64321;48.796;44.740;2023-08-17T04:41:31;8.80;;;2.42;;
75700;SDS011;64321;48.796;44.740;2023-08-17T04:46:35;3.83;;;2.13;;
75700;SDS011;64321;48.796;44.740;2023-08-17T04:51:38;5.68;;;2.47;;
75700;SDS011;64321;48.796;44.740;2023-08-17T04:56:40;5.50;;;2.40;;
75700;SDS011;64321;48.796;44.740;2023-08-17T05:01:43;4.68;;;2.35;;
75700;SDS011;64321;48.796;44.740;2023-08-17T05:06:45;6.82;;;2.92;;
75700;SDS011;64321;48.796;44.740;2023-08-17T05:11:48;6.93;;;2.83;;
75700;SDS011;64321;48.796;44.740;2023-08-17T05:16:50;7.00;;;2.28;;
75700;SDS011;64321;48.796;44.740;2023-08-17T05:21:53;4.05;;;2.30;;
75700;SDS011;64321;48.796;44.740;2023-08-17T05:26:56;3.88;;;2.40;;
75700;SDS011;64321;48.796;44.740;2023-08-17T05:31:58;5.25;;;2.40;;
75700;SDS011;64321;48.796;44.740;2023-08-17T05:37:02;3.72;;;1.80;;
75700;SDS011;64321;48.796;44.740;2023-08-17T05:42:05;6.75;;;2.45;;
75700;SDS011;64321;48.796;44.740;2023-08-17T05:47:07;4.28;;;2.13;;
75700;SDS011;64321;48.796;44.740;2023-08-17T05:52:09;3.38;;;1.70;;
75700;SDS011;64321;48.796;44.740;2023-08-17T05:57:11;7.65;;;2.22;;
75700;SDS011;64321;48.796;44.740;2023-08-17T06:02:13;6.55;;;2.22;;
75700;SDS011;64321;48.796;44.740;2023-08-17T06:07:16;5.90;;;2.60;;
75700;SDS011;64321;48.796;44.740;2023-08-17T06:12:18;3.40;;;2.22;;
75700;SDS011;64321;48.796;44.740;2023-08-17T06:17:20;4.50;;;2.47;;
75700;SDS011;64321;48.796;44.740;2023-08-17T06:22:23;4.45;;;2.20;;
75700;SDS011;64321;48.796;44.740;2023-08-17T06:27:25;4.78;;;2.20;;
75700;SDS011;64321;48.796;44.740;2023-08-17T06:32:27;5.00;;;3.45;;
75700;SDS011;64321;48.796;44.740;2023-08-17T06:37:30;5.53;;;2.55;;
75700;SDS011;64321;48.796;44.740;2023-08-17T06:42:32;3.50;;;2.03;;
75700;SDS011;64321;48.796;44.740;2023-08-17T06:47:34;3.80;;;2.10;;
75700;SDS011;64321;48.796;44.740;2023-08-17T06:52:36;5.88;;;2.80;;
75700;SDS011;64321;48.796;44.740;2023-08-17T06:57:39;3.97;;;2.28;;
75700;SDS011;64321;48.796;44.740;2023-08-17T07:02:41;5.63;;;2.25;;
75700;SDS011;64321;48.796;44.740;2023-08-17T07:07:54;6.10;;;2.20;;
75700;SDS011;64321;48.796;44.740;2023-08-17T07:12:57;5.13;;;2.38;;
75700;SDS011;64321;48.796;44.740;2023-08-17T07:17:59;5.15;;;2.45;;
75700;SDS011;64321;48.796;44.740;2023-08-17T07:23:01;4.40;;;2.33;;
75700;SDS011;64321;48.796;44.740;2023-08-17T07:28:04;4.10;;;2.17;;
75700;SDS011;64321;48.796;44.740;2023-08-17T07:33:06;5.97;;;2.35;;
75700;SDS011;64321;48.796;44.740;2023-08-17T07:38:09;2.70;;;2.00;;
75700;SDS011;64321;48.796;44.740;2023-08-17T07:43:11;3.72;;;2.17;;
75700;SDS011;64321;48.796;44.740;2023-08-17T07:48:13;4.80;;;2.25;;
75700;SDS011;64321;48.796;44.740;2023-08-17T07:53:16;5.72;;;1.88;;
75700;SDS011;64321;48.796;44.740;2023-08-17T07:58:18;3.80;;;2.22;;
75700;SDS011;64321;48.796;44.740;2023-08-17T08:03:20;4.50;;;2.03;;
75700;SDS011;64321;48.796;44.740;2023-08-17T08:08:22;5.28;;;2.03;;
75700;SDS011;64321;48.796;44.740;2023-08-17T08:13:25;3.72;;;1.95;;
75700;SDS011;64321;48.796;44.740;2023-08-17T08:18:27;3.22;;;1.52;;
75700;SDS011;64321;48.796;44.740;2023-08-17T08:23:29;4.05;;;1.88;;
75700;SDS011;64321;48.796;44.740;2023-08-17T08:28:31;3.75;;;1.65;;
75700;SDS011;64321;48.796;44.740;2023-08-17T08:33:33;5.70;;;1.65;;
75700;SDS011;64321;48.796;44.740;2023-08-17T08:38:35;3.40;;;2.03;;
75700;SDS011;64321;48.796;44.740;2023-08-17T08:43:38;4.20;;;1.92;;
75700;SDS011;64321;48.796;44.740;2023-08-17T08:48:40;2.53;;;1.35;;
75700;SDS011;64321;48.796;44.740;2023-08-17T08:53:44;4.28;;;2.03;;
75700;SDS011;64321;48.796;44.740;2023-08-17T08:58:47;3.20;;;1.70;;
75700;SDS011;64321;48.796;44.740;2023-08-17T09:03:55;3.95;;;1.80;;
75700;SDS011;64321;48.796;44.740;2023-08-17T09:08:58;3.05;;;2.00;;
75700;SDS011;64321;48.796;44.740;2023-08-17T09:14:01;3.17;;;1.58;;
75700;SDS011;64321;48.796;44.740;2023-08-17T09:19:04;3.88;;;2.00;;
75700;SDS011;64321;48.796;44.740;2023-08-17T09:24:06;4.70;;;2.03;;
75700;SDS011;64321;48.796;44.740;2023-08-17T09:29:19;3.67;;;2.03;;
75700;SDS011;64321;48.796;44.740;2023-08-17T09:34:22;3.50;;;2.13;;
75700;SDS011;64321;48.796;44.740;2023-08-17T09:39:24;2.88;;;1.73;;
75700;SDS011;64321;48.796;44.740;2023-08-17T09:44:28;3.30;;;2.08;;
75700;SDS011;64321;48.796;44.740;2023-08-17T09:49:33;3.10;;;2.00;;
75700;SDS011;64321;48.796;44.740;2023-08-17T09:54:37;3.85;;;1.95;;
75700;SDS011;64321;48.796;44.740;2023-08-17T10:04:47;3.30;;;1.70;;
75700;SDS011;64321;48.796;44.740;2023-08-17T10:09:56;5.97;;;2.10;;
75700;SDS011;64321;48.796;44.740;2023-08-17T10:14:59;3.13;;;1.80;;
75700;SDS011;64321;48.796;44.740;2023-08-17T10:20:06;3.63;;;1.60;;
75700;SDS011;64321;48.796;44.740;2023-08-17T10:25:09;6.70;;;2.40;;
75700;SDS011;64321;48.796;44.740;2023-08-17T10:30:14;6.03;;;1.85;;
75700;SDS011;64321;48.796;44.740;2023-08-17T10:35:17;3.05;;;1.80;;
75700;SDS011;64321;48.796;44.740;2023-08-17T10:40:25;3.72;;;1.98;;
75700;SDS011;64321;48.796;44.740;2023-08-17T10:45:28;3.58;;;1.80;;
75700;SDS011;64321;48.796;44.740;2023-08-17T10:50:33;3.28;;;1.80;;
75700;SDS011;64321;48.796;44.740;2023-08-17T10:55:36;3.53;;;2.53;;
75700;SDS011;64321;48.796;44.740;2023-08-17T11:00:39;15.60;;;2.22;;
75700;SDS011;64321;48.796;44.740;2023-08-17T11:05:45;2.10;;;1.48;;
75700;SDS011;64321;48.796;44.740;2023-08-17T11:11:05;2.55;;;1.45;;
75700;SDS011;64321;48.796;44.740;2023-08-17T11:16:08;2.88;;;1.70;;
75700;SDS011;64321;48.796;44.740;2023-08-17T11:21:11;2.25;;;1.63;;
75700;SDS011;64321;48.796;44.740;2023-08-17T11:26:20;3.50;;;1.75;;
75700;SDS011;64321;48.796;44.740;2023-08-17T11:31:22;3.10;;;1.70;;
75700;SDS011;64321;48.796;44.740;2023-08-17T11:36:25;2.97;;;1.77;;
75700;SDS011;64321;48.796;44.740;2023-08-17T11:41:28;4.25;;;1.77;;
75700;SDS011;64321;48.796;44.740;2023-08-17T11:46:31;2.40;;;1.50;;
75700;SDS011;64321;48.796;44.740;2023-08-17T11:51:34;3.45;;;1.60;;
75700;SDS011;64321;48.796;44.740;2023-08-17T11:56:43;3.67;;;1.50;;
75700;SDS011;64321;48.796;44.740;2023-08-17T12:01:45;2.97;;;1.60;;
75700;SDS011;64321;48.796;44.740;2023-08-17T12:06:48;2.75;;;1.50;;
75700;SDS011;64321;48.796;44.740;2023-08-17T12:11:53;4.07;;;1.50;;
75700;SDS011;64321;48.796;44.740;2023-08-17T12:16:56;3.70;;;1.77;;
75700;SDS011;64321;48.796;44.740;2023-08-17T12:21:59;3.50;;;1.50;;
75700;SDS011;64321;48.796;44.740;2023-08-17T12:27:02;3.15;;;1.85;;
75700;SDS011;64321;48.796;44.740;2023-08-17T12:32:05;2.40;;;1.60;;
75700;SDS011;64321;48.796;44.740;2023-08-17T12:37:09;5.05;;;1.80;;
75700;SDS011;64321;48.796;44.740;2023-08-17T12:42:12;2.60;;;1.80;;
75700;SDS011;64321;48.796;44.740;2023-08-17T12:47:14;2.55;;;1.45;;
75700;SDS011;64321;48.796;44.740;2023-08-17T12:52:16;2.38;;;1.30;;
75700;SDS011;64321;48.796;44.740;2023-08-17T12:57:19;7.18;;;2.05;;
75700;SDS011;64321;48.796;44.740;2023-08-17T13:02:21;3.35;;;1.92;;
75700;SDS011;64321;48.796;44.740;2023-08-17T13:07:23;2.45;;;1.42;;
75700;SDS011;64321;48.796;44.740;2023-08-17T13:12:25;2.67;;;1.45;;
75700;SDS011;64321;48.796;44.740;2023-08-17T13:17:28;3.25;;;1.63;;
75700;SDS011;64321;48.796;44.740;2023-08-17T13:22:31;2.38;;;1.52;;
75700;SDS011;64321;48.796;44.740;2023-08-17T13:27:33;2.67;;;1.58;;
75700;SDS011;64321;48.796;44.740;2023-08-17T13:32:35;2.17;;;1.33;;
75700;SDS011;64321;48.796;44.740;2023-08-17T13:37:40;2.65;;;1.58;;
75700;SDS011;64321;48.796;44.740;2023-08-17T13:42:42;3.17;;;1.85;;
75700;SDS011;64321;48.796;44.740;2023-08-17T13:47:44;2.20;;;1.20;;
75700;SDS011;64321;48.796;44.740;2023-08-17T13:52:46;2.97;;;1.27;;
75700;SDS011;64321;48.796;44.740;2023-08-17T13:57:49;4.00;;;1.35;;
75700;SDS011;64321;48.796;44.740;2023-08-17T14:02:51;2.65;;;1.23;;
75700;SDS011;64321;48.796;44.740;2023-08-17T14:07:55;4.07;;;1.55;;
75700;SDS011;64321;48.796;44.740;2023-08-17T14:12:59;3.38;;;1.23;;
75700;SDS011;64321;48.796;44.740;2023-08-17T14:18:02;2.45;;;1.45;;
75700;SDS011;64321;48.796;44.740;2023-08-17T14:23:06;2.67;;;1.25;;
75700;SDS011;64321;48.796;44.740;2023-08-17T14:28:08;2.47;;;1.40;;
75700;SDS011;64321;48.796;44.740;2023-08-17T14:33:11;3.38;;;1.40;;
75700;SDS011;64321;48.796;44.740;2023-08-17T14:38:14;2.38;;;1.55;;
75700;SDS011;64321;48.796;44.740;2023-08-17T14:43:16;3.90;;;1.40;;
75700;SDS011;64321;48.796;44.740;2023-08-17T14:48:19;3.63;;;1.70;;
75700;SDS011;64321;48.796;44.740;2023-08-17T14:53:23;3.63;;;1.67;;
75700;SDS011;64321;48.796;44.740;2023-08-17T14:58:26;2.97;;;1.25;;
75700;SDS011;64321;48.796;44.740;2023-08-17T15:03:28;2.80;;;1.10;;
75700;SDS011;64321;48.796;44.740;2023-08-17T15:08:31;2.22;;;1.25;;
75700;SDS011;64321;48.796;44.740;2023-08-17T15:13:35;4.18;;;1.48;;
75700;SDS011;64321;48.796;44.740;2023-08-17T15:18:40;4.47;;;1.52;;
75700;SDS011;64321;48.796;44.740;2023-08-17T15:23:42;4.68;;;1.67;;
75700;SDS011;64321;48.796;44.740;2023-08-17T15:28:44;2.40;;;1.33;;
75700;SDS011;64321;48.796;44.740;2023-08-17T15:33:47;3.58;;;1.58;;
75700;SDS011;64321;48.796;44.740;2023-08-17T15:38:52;4.55;;;1.92;;
75700;SDS011;64321;48.796;44.740;2023-08-17T15:43:54;4.97;;;1.95;;
75700;SDS011;64321;48.796;44.740;2023-08-17T15:48:59;3.38;;;1.80;;
75700;SDS011;64321;48.796;44.740;2023-08-17T15:54:01;7.93;;;2.28;;
75700;SDS011;64321;48.796;44.740;2023-08-17T15:59:04;6.05;;;2.10;;
75700;SDS011;64321;48.796;44.740;2023-08-17T16:04:06;5.82;;;1.67;;
75700;SDS011;64321;48.796;44.740;2023-08-17T16:09:08;5.95;;;2.08;;
75700;SDS011;64321;48.796;44.740;2023-08-17T16:14:11;3.53;;;2.10;;
75700;SDS011;64321;48.796;44.740;2023-08-17T16:19:13;6.38;;;2.60;;
75700;SDS011;64321;48.796;44.740;2023-08-17T16:24:15;8.00;;;2.83;;
75700;SDS011;64321;48.796;44.740;2023-08-17T16:29:17;5.35;;;2.63;;
75700;SDS011;64321;48.796;44.740;2023-08-17T16:34:19;10.68;;;3.35;;
75700;SDS011;64321;48.796;44.740;2023-08-17T16:39:21;7.10;;;2.92;;
75700;SDS011;64321;48.796;44.740;2023-08-17T16:44:23;6.65;;;2.30;;
75700;SDS011;64321;48.796;44.740;2023-08-17T16:49:29;8.00;;;2.20;;
75700;SDS011;64321;48.796;44.740;2023-08-17T16:54:31;6.68;;;2.47;;
75700;SDS011;64321;48.796;44.740;2023-08-17T16:59:33;8.48;;;2.72;;
75700;SDS011;64321;48.796;44.740;2023-08-17T17:04:37;8.63;;;3.13;;
75700;SDS011;64321;48.796;44.740;2023-08-17T17:09:39;7.93;;;2.63;;
75700;SDS011;64321;48.796;44.740;2023-08-17T17:14:41;8.80;;;3.28;;
75700;SDS011;64321;48.796;44.740;2023-08-17T17:19:44;9.82;;;4.50;;
75700;SDS011;64321;48.796;44.740;2023-08-17T17:24:46;13.43;;;5.80;;
75700;SDS011;64321;48.796;44.740;2023-08-17T17:29:48;21.20;;;8.00;;
75700;SDS011;64321;48.796;44.740;2023-08-17T17:34:50;13.65;;;6.35;;
75700;SDS011;64321;48.796;44.740;2023-08-17T17:39:52;13.60;;;7.28;;
75700;SDS011;64321;48.796;44.740;2023-08-17T17:44:54;20.98;;;12.77;;
75700;SDS011;64321;48.796;44.740;2023-08-17T17:49:59;17.80;;;10.48;;
75700;SDS011;64321;48.796;44.740;2023-08-17T17:55:01;18.45;;;9.73;;
75700;SDS011;64321;48.796;44.740;2023-08-17T18:00:05;17.63;;;8.50;;
75700;SDS011;64321;48.796;44.740;2023-08-17T18:05:13;16.60;;;8.45;;
75700;SDS011;64321;48.796;44.740;2023-08-17T18:10:15;16.00;;;9.50;;
75700;SDS011;64321;48.796;44.740;2023-08-17T18:15:17;14.73;;;6.78;;
75700;SDS011;64321;48.796;44.740;2023-08-17T18:20:19;16.45;;;8.65;;
75700;SDS011;64321;48.796;44.740;2023-08-17T18:25:21;21.65;;;9.07;;
75700;SDS011;64321;48.796;44.740;2023-08-17T18:30:24;16.13;;;8.77;;
75700;SDS011;64321;48.796;44.740;2023-08-17T18:35:26;17.20;;;8.60;;
75700;SDS011;64321;48.796;44.740;2023-08-17T18:40:28;15.38;;;8.65;;
75700;SDS011;64321;48.796;44.740;2023-08-17T18:45:30;18.65;;;8.32;;
75700;SDS011;64321;48.796;44.740;2023-08-17T18:50:32;15.70;;;7.70;;
75700;SDS011;64321;48.796;44.740;2023-08-17T18:55:35;16.83;;;8.05;;
75700;SDS011;64321;48.796;44.740;2023-08-17T19:00:37;14.68;;;7.13;;
75700;SDS011;64321;48.796;44.740;2023-08-17T19:05:39;14.65;;;7.25;;
75700;SDS011;64321;48.796;44.740;2023-08-17T19:10:42;17.27;;;6.50;;
75700;SDS011;64321;48.796;44.740;2023-08-17T19:15:44;14.90;;;7.95;;
75700;SDS011;64321;48.796;44.740;2023-08-17T19:20:46;12.00;;;6.88;;
75700;SDS011;64321;48.796;44.740;2023-08-17T19:25:48;11.68;;;5.60;;
75700;SDS011;64321;48.796;44.740;2023-08-17T19:30:51;11.00;;;5.78;;
75700;SDS011;64321;48.796;44.740;2023-08-17T19:35:53;10.05;;;5.38;;
75700;SDS011;64321;48.796;44.740;2023-08-17T19:40:55;11.60;;;5.10;;
75700;SDS011;64321;48.796;44.740;2023-08-17T19:45:57;9.40;;;4.75;;
75700;SDS011;64321;48.796;44.740;2023-08-17T19:51:00;9.50;;;4.05;;
75700;SDS011;64321;48.796;44.740;2023-08-17T19:56:02;9.10;;;4.25;;
75700;SDS011;64321;48.796;44.740;2023-08-17T20:01:05;7.95;;;3.72;;
75700;SDS011;64321;48.796;44.740;2023-08-17T20:06:08;9.13;;;3.40;;
75700;SDS011;64321;48.796;44.740;2023-08-17T20:11:11;7.22;;;3.33;;
75700;SDS011;64321;48.796;44.740;2023-08-17T20:16:14;10.38;;;3.20;;
75700;SDS011;64321;48.796;44.740;2023-08-17T20:21:17;7.63;;;3.80;;
75700;SDS011;64321;48.796;44.740;2023-08-17T20:26:19;6.57;;;3.05;;
75700;SDS011;64321;48.796;44.740;2023-08-17T20:31:21;6.18;;;3.35;;
75700;SDS011;64321;48.796;44.740;2023-08-17T20:36:24;5.82;;;3.00;;
75700;SDS011;64321;48.796;44.740;2023-08-17T20:41:26;5.32;;;3.10;;
75700;SDS011;64321;48.796;44.740;2023-08-17T20:46:28;5.68;;;2.70;;
75700;SDS011;64321;48.796;44.740;2023-08-17T20:51:30;5.18;;;3.25;;
75700;SDS011;64321;48.796;44.740;2023-08-17T20:56:32;5.85;;;2.88;;
75700;SDS011;64321;48.796;44.740;2023-08-17T21:01:35;7.60;;;2.83;;
75700;SDS011;64321;48.796;44.740;2023-08-17T21:06:37;8.40;;;3.15;;
75700;SDS011;64321;48.796;44.740;2023-08-17T21:11:42;10.32;;;4.40;;
75700;SDS011;64321;48.796;44.740;2023-08-17T21:16:45;5.55;;;2.78;;
75700;SDS011;64321;48.796;44.740;2023-08-17T21:21:47;7.18;;;3.63;;
75700;SDS011;64321;48.796;44.740;2023-08-17T21:26:49;6.07;;;3.35;;
75700;SDS011;64321;48.796;44.740;2023-08-17T21:31:51;6.72;;;3.45;;
75700;SDS011;64321;48.796;44.740;2023-08-17T21:36:53;5.97;;;3.38;;
75700;SDS011;64321;48.796;44.740;2023-08-17T21:41:55;6.05;;;3.42;;
75700;SDS011;64321;48.796;44.740;2023-08-17T21:46:58;7.47;;;3.17;;
75700;SDS011;64321;48.796;44.740;2023-08-17T21:52:00;6.20;;;3.45;;
75700;SDS011;64321;48.796;44.740;2023-08-17T21:57:02;6.65;;;3.42;;
75700;SDS011;64321;48.796;44.740;2023-08-17T22:02:04;7.30;;;3.60;;
75700;SDS011;64321;48.796;44.740;2023-08-17T22:07:09;6.03;;;3.75;;
75700;SDS011;64321;48.796;44.740;2023-08-17T22:12:11;6.30;;;3.88;;
75700;SDS011;64321;48.796;44.740;2023-08-17T22:17:14;5.07;;;3.63;;
75700;SDS011;64321;48.796;44.740;2023-08-17T22:22:16;7.75;;;4.57;;
75700;SDS011;64321;48.796;44.740;2023-08-17T22:27:18;6.15;;;3.50;;
75700;SDS011;64321;48.796;44.740;2023-08-17T22:32:20;6.53;;;3.92;;
75700;SDS011;64321;48.796;44.740;2023-08-17T22:37:22;7.55;;;4.15;;
75700;SDS011;64321;48.796;44.740;2023-08-17T22:42:25;5.97;;;3.80;;
75700;SDS011;64321;48.796;44.740;2023-08-17T22:47:27;7.50;;;3.78;;
75700;SDS011;64321;48.796;44.740;2023-08-17T22:52:30;6.60;;;3.50;;
75700;SDS011;64321;48.796;44.740;2023-08-17T22:57:32;5.90;;;3.75;;
75700;SDS011;64321;48.796;44.740;2023-08-17T23:02:34;6.15;;;3.42;;
75700;SDS011;64321;48.796;44.740;2023-08-17T23:07:36;6.75;;;3.60;;
75700;SDS011;64321;48.796;44.740;2023-08-17T23:12:39;5.13;;;3.60;;
75700;SDS011;64321;48.796;44.740;2023-08-17T23:17:41;7.80;;;3.50;;
75700;SDS011;64321;48.796;44.740;2023-08-17T23:22:43;6.05;;;3.85;;
75700;SDS011;64321;48.796;44.740;2023-08-17T23:27:45;7.57;;;3.95;;
75700;SDS011;64321;48.796;44.740;2023-08-17T23:32:47;5.45;;;3.53;;
75700;SDS011;64321;48.796;44.740;2023-08-17T23:37:52;5.22;;;3.50;;
75700;SDS011;64321;48.796;44.740;2023-08-17T23:42:54;7.00;;;3.53;;
75700;SDS011;64321;48.796;44.740;2023-08-17T23:47:56;7.05;;;3.95;;
75700;SDS011;64321;48.796;44.740;2023-08-17T23:52:59;5.78;;;3.97;;
75700;SDS011;64321;48.796;44.740;2023-08-17T23:58:01;7.88;;;3.65;;
